sensor_id;sensor_type;location;lat;lon;timestamp;P1;durP1;ratioP1;P2;durP2;ratioP2
21181;SDS011;10749;46.296;7.524;2023-07-29T00:02:07;5.80;;;3.33;;
21181;SDS011;10749;46.296;7.524;2023-07-29T00:04:32;6.00;;;3.25;;
21181;SDS011;10749;46.296;7.524;2023-07-29T00:06:57;5.25;;;3.33;;
21181;SDS011;10749;46.296;7.524;2023-07-29T00:09:23;6.03;;;3.40;;
21181;SDS011;10749;46.296;7.524;2023-07-29T00:11:48;4.72;;;3.53;;
21181;SDS011;10749;46.296;7.524;2023-07-29T00:14:13;5.05;;;3.92;;
21181;SDS011;10749;46.296;7.524;2023-07-29T00:16:39;5.25;;;3.38;;
21181;SDS011;10749;46.296;7.524;2023-07-29T00:19:07;4.43;;;3.13;;
21181;SDS011;10749;46.296;7.524;2023-07-29T00:21:32;3.92;;;3.05;;
21181;SDS011;10749;46.296;7.524;2023-07-29T00:23:57;5.75;;;3.40;;
21181;SDS011;10749;46.296;7.524;2023-07-29T00:26:23;4.32;;;3.20;;
21181;SDS011;10749;46.296;7.524;2023-07-29T00:28:50;5.40;;;3.10;;
21181;SDS011;10749;46.296;7.524;2023-07-29T00:31:16;5.15;;;3.30;;
21181;SDS011;10749;46.296;7.524;2023-07-29T00:33:41;6.00;;;3.38;;
21181;SDS011;10749;46.296;7.524;2023-07-29T00:36:07;3.60;;;3.10;;
21181;SDS011;10749;46.296;7.524;2023-07-29T00:38:32;5.13;;;3.33;;
21181;SDS011;10749;46.296;7.524;2023-07-29T00:40:57;5.38;;;3.38;;
21181;SDS011;10749;46.296;7.524;2023-07-29T00:43:24;4.18;;;3.40;;
21181;SDS011;10749;46.296;7.524;2023-07-29T00:45:49;6.63;;;3.53;;
21181;SDS011;10749;46.296;7.524;2023-07-29T00:48:14;6.47;;;3.63;;
21181;SDS011;10749;46.296;7.524;2023-07-29T00:50:40;4.25;;;3.38;;
21181;SDS011;10749;46.296;7.524;2023-07-29T00:53:05;3.72;;;3.17;;
21181;SDS011;10749;46.296;7.524;2023-07-29T00:55:31;4.07;;;3.33;;
21181;SDS011;10749;46.296;7.524;2023-07-29T00:57:57;5.20;;;3.65;;
21181;SDS011;10749;46.296;7.524;2023-07-29T01:00:22;4.38;;;3.03;;
21181;SDS011;10749;46.296;7.524;2023-07-29T01:02:47;6.15;;;3.47;;
21181;SDS011;10749;46.296;7.524;2023-07-29T01:05:13;4.28;;;3.50;;
21181;SDS011;10749;46.296;7.524;2023-07-29T01:07:49;4.35;;;3.30;;
21181;SDS011;10749;46.296;7.524;2023-07-29T01:13:25;7.35;;;4.00;;
21181;SDS011;10749;46.296;7.524;2023-07-29T01:17:00;7.75;;;3.30;;
21181;SDS011;10749;46.296;7.524;2023-07-29T01:22:09;8.00;;;3.30;;
21181;SDS011;10749;46.296;7.524;2023-07-29T01:24:36;7.13;;;3.30;;
21181;SDS011;10749;46.296;7.524;2023-07-29T01:27:01;6.93;;;3.70;;
21181;SDS011;10749;46.296;7.524;2023-07-29T01:29:28;5.97;;;3.47;;
21181;SDS011;10749;46.296;7.524;2023-07-29T01:31:54;3.80;;;3.15;;
21181;SDS011;10749;46.296;7.524;2023-07-29T01:34:26;6.22;;;3.70;;
21181;SDS011;10749;46.296;7.524;2023-07-29T01:36:57;6.18;;;3.92;;
21181;SDS011;10749;46.296;7.524;2023-07-29T01:39:24;4.90;;;3.22;;
21181;SDS011;10749;46.296;7.524;2023-07-29T01:41:52;4.68;;;3.42;;
21181;SDS011;10749;46.296;7.524;2023-07-29T01:44:18;4.68;;;3.30;;
21181;SDS011;10749;46.296;7.524;2023-07-29T01:46:44;4.72;;;3.70;;
21181;SDS011;10749;46.296;7.524;2023-07-29T01:49:09;4.35;;;3.08;;
21181;SDS011;10749;46.296;7.524;2023-07-29T01:51:35;5.13;;;3.08;;
21181;SDS011;10749;46.296;7.524;2023-07-29T01:54:00;3.85;;;3.30;;
21181;SDS011;10749;46.296;7.524;2023-07-29T01:56:26;4.90;;;3.22;;
21181;SDS011;10749;46.296;7.524;2023-07-29T01:58:51;5.40;;;3.25;;
21181;SDS011;10749;46.296;7.524;2023-07-29T02:01:16;4.35;;;3.33;;
21181;SDS011;10749;46.296;7.524;2023-07-29T02:03:42;5.38;;;3.20;;
21181;SDS011;10749;46.296;7.524;2023-07-29T02:06:07;4.38;;;3.40;;
21181;SDS011;10749;46.296;7.524;2023-07-29T02:08:32;4.40;;;3.30;;
21181;SDS011;10749;46.296;7.524;2023-07-29T02:10:57;4.45;;;3.65;;
21181;SDS011;10749;46.296;7.524;2023-07-29T02:13:23;5.90;;;3.40;;
21181;SDS011;10749;46.296;7.524;2023-07-29T02:15:48;5.07;;;3.60;;
21181;SDS011;10749;46.296;7.524;2023-07-29T02:18:13;5.28;;;3.78;;
21181;SDS011;10749;46.296;7.524;2023-07-29T02:20:39;5.50;;;3.50;;
21181;SDS011;10749;46.296;7.524;2023-07-29T02:23:04;5.38;;;3.65;;
21181;SDS011;10749;46.296;7.524;2023-07-29T02:25:29;4.95;;;3.42;;
21181;SDS011;10749;46.296;7.524;2023-07-29T02:27:55;4.22;;;3.60;;
21181;SDS011;10749;46.296;7.524;2023-07-29T02:30:20;5.20;;;3.42;;
21181;SDS011;10749;46.296;7.524;2023-07-29T02:32:46;5.10;;;4.03;;
21181;SDS011;10749;46.296;7.524;2023-07-29T02:35:11;4.70;;;3.25;;
21181;SDS011;10749;46.296;7.524;2023-07-29T02:37:37;4.68;;;3.20;;
21181;SDS011;10749;46.296;7.524;2023-07-29T02:40:02;4.63;;;3.17;;
21181;SDS011;10749;46.296;7.524;2023-07-29T02:42:28;4.80;;;3.28;;
21181;SDS011;10749;46.296;7.524;2023-07-29T02:44:54;4.20;;;3.33;;
21181;SDS011;10749;46.296;7.524;2023-07-29T02:47:19;4.20;;;3.40;;
21181;SDS011;10749;46.296;7.524;2023-07-29T02:49:44;4.78;;;3.70;;
21181;SDS011;10749;46.296;7.524;2023-07-29T02:52:10;4.00;;;3.13;;
21181;SDS011;10749;46.296;7.524;2023-07-29T02:54:35;6.38;;;3.38;;
21181;SDS011;10749;46.296;7.524;2023-07-29T02:57:00;5.75;;;3.97;;
21181;SDS011;10749;46.296;7.524;2023-07-29T02:59:26;5.18;;;2.97;;
21181;SDS011;10749;46.296;7.524;2023-07-29T03:01:51;5.43;;;3.42;;
21181;SDS011;10749;46.296;7.524;2023-07-29T03:04:18;4.32;;;3.63;;
21181;SDS011;10749;46.296;7.524;2023-07-29T03:06:43;4.18;;;3.47;;
21181;SDS011;10749;46.296;7.524;2023-07-29T03:09:09;4.40;;;3.55;;
21181;SDS011;10749;46.296;7.524;2023-07-29T03:11:34;5.57;;;3.70;;
21181;SDS011;10749;46.296;7.524;2023-07-29T03:14:00;3.75;;;3.20;;
21181;SDS011;10749;46.296;7.524;2023-07-29T03:16:25;5.63;;;3.67;;
21181;SDS011;10749;46.296;7.524;2023-07-29T03:18:51;4.22;;;3.70;;
21181;SDS011;10749;46.296;7.524;2023-07-29T03:21:16;5.00;;;3.67;;
21181;SDS011;10749;46.296;7.524;2023-07-29T03:23:42;5.25;;;3.53;;
21181;SDS011;10749;46.296;7.524;2023-07-29T03:26:07;6.65;;;4.07;;
21181;SDS011;10749;46.296;7.524;2023-07-29T03:28:36;4.95;;;3.88;;
21181;SDS011;10749;46.296;7.524;2023-07-29T03:31:05;5.20;;;4.03;;
21181;SDS011;10749;46.296;7.524;2023-07-29T03:33:31;5.95;;;4.03;;
21181;SDS011;10749;46.296;7.524;2023-07-29T03:35:56;5.75;;;4.13;;
21181;SDS011;10749;46.296;7.524;2023-07-29T03:38:21;4.88;;;3.88;;
21181;SDS011;10749;46.296;7.524;2023-07-29T03:40:47;7.60;;;3.90;;
21181;SDS011;10749;46.296;7.524;2023-07-29T03:43:13;6.30;;;3.92;;
21181;SDS011;10749;46.296;7.524;2023-07-29T03:45:39;5.43;;;4.20;;
21181;SDS011;10749;46.296;7.524;2023-07-29T03:48:05;4.80;;;3.85;;
21181;SDS011;10749;46.296;7.524;2023-07-29T03:50:32;6.15;;;4.43;;
21181;SDS011;10749;46.296;7.524;2023-07-29T03:52:58;7.35;;;4.53;;
21181;SDS011;10749;46.296;7.524;2023-07-29T03:55:24;6.05;;;3.85;;
21181;SDS011;10749;46.296;7.524;2023-07-29T03:57:49;6.57;;;3.97;;
21181;SDS011;10749;46.296;7.524;2023-07-29T04:00:14;5.35;;;3.78;;
21181;SDS011;10749;46.296;7.524;2023-07-29T04:02:41;5.63;;;4.47;;
21181;SDS011;10749;46.296;7.524;2023-07-29T04:05:06;6.05;;;4.57;;
21181;SDS011;10749;46.296;7.524;2023-07-29T04:07:33;7.13;;;4.18;;
21181;SDS011;10749;46.296;7.524;2023-07-29T04:09:59;6.93;;;4.10;;
21181;SDS011;10749;46.296;7.524;2023-07-29T04:12:24;6.30;;;4.43;;
21181;SDS011;10749;46.296;7.524;2023-07-29T04:14:49;5.85;;;4.00;;
21181;SDS011;10749;46.296;7.524;2023-07-29T04:17:15;5.45;;;3.95;;
21181;SDS011;10749;46.296;7.524;2023-07-29T04:19:40;7.38;;;4.03;;
21181;SDS011;10749;46.296;7.524;2023-07-29T04:22:06;7.05;;;4.20;;
21181;SDS011;10749;46.296;7.524;2023-07-29T04:24:31;5.15;;;4.03;;
21181;SDS011;10749;46.296;7.524;2023-07-29T04:26:57;5.72;;;4.45;;
21181;SDS011;10749;46.296;7.524;2023-07-29T04:29:22;5.22;;;3.72;;
21181;SDS011;10749;46.296;7.524;2023-07-29T04:31:48;6.60;;;4.43;;
21181;SDS011;10749;46.296;7.524;2023-07-29T04:34:14;5.03;;;4.18;;
21181;SDS011;10749;46.296;7.524;2023-07-29T04:36:39;5.57;;;4.30;;
21181;SDS011;10749;46.296;7.524;2023-07-29T04:39:04;5.47;;;3.97;;
21181;SDS011;10749;46.296;7.524;2023-07-29T04:41:30;5.90;;;4.00;;
21181;SDS011;10749;46.296;7.524;2023-07-29T04:43:55;7.93;;;4.18;;
21181;SDS011;10749;46.296;7.524;2023-07-29T04:46:20;6.20;;;4.30;;
21181;SDS011;10749;46.296;7.524;2023-07-29T04:48:46;9.38;;;4.55;;
21181;SDS011;10749;46.296;7.524;2023-07-29T04:51:11;7.03;;;4.20;;
21181;SDS011;10749;46.296;7.524;2023-07-29T04:53:36;6.75;;;4.05;;
21181;SDS011;10749;46.296;7.524;2023-07-29T04:56:03;7.10;;;4.32;;
21181;SDS011;10749;46.296;7.524;2023-07-29T04:58:28;7.28;;;4.15;;
21181;SDS011;10749;46.296;7.524;2023-07-29T05:00:55;5.20;;;3.65;;
21181;SDS011;10749;46.296;7.524;2023-07-29T05:03:23;5.00;;;3.90;;
21181;SDS011;10749;46.296;7.524;2023-07-29T05:05:48;5.93;;;4.32;;
21181;SDS011;10749;46.296;7.524;2023-07-29T05:08:14;6.35;;;4.43;;
21181;SDS011;10749;46.296;7.524;2023-07-29T05:10:39;6.15;;;3.90;;
21181;SDS011;10749;46.296;7.524;2023-07-29T05:13:04;7.15;;;4.35;;
21181;SDS011;10749;46.296;7.524;2023-07-29T05:15:29;5.65;;;4.13;;
21181;SDS011;10749;46.296;7.524;2023-07-29T05:17:55;5.32;;;4.05;;
21181;SDS011;10749;46.296;7.524;2023-07-29T05:20:21;9.13;;;5.22;;
21181;SDS011;10749;46.296;7.524;2023-07-29T05:22:46;7.00;;;4.30;;
21181;SDS011;10749;46.296;7.524;2023-07-29T05:25:11;7.57;;;4.55;;
21181;SDS011;10749;46.296;7.524;2023-07-29T05:27:37;6.97;;;4.65;;
21181;SDS011;10749;46.296;7.524;2023-07-29T05:30:02;6.20;;;4.57;;
21181;SDS011;10749;46.296;7.524;2023-07-29T05:32:27;8.18;;;4.40;;
21181;SDS011;10749;46.296;7.524;2023-07-29T05:34:54;8.32;;;4.22;;
21181;SDS011;10749;46.296;7.524;2023-07-29T05:37:19;5.40;;;4.60;;
21181;SDS011;10749;46.296;7.524;2023-07-29T05:39:45;6.40;;;4.47;;
21181;SDS011;10749;46.296;7.524;2023-07-29T05:42:10;7.55;;;4.45;;
21181;SDS011;10749;46.296;7.524;2023-07-29T05:44:35;5.78;;;4.68;;
21181;SDS011;10749;46.296;7.524;2023-07-29T05:47:01;6.45;;;4.28;;
21181;SDS011;10749;46.296;7.524;2023-07-29T05:49:26;7.35;;;4.00;;
21181;SDS011;10749;46.296;7.524;2023-07-29T05:51:51;5.47;;;4.18;;
21181;SDS011;10749;46.296;7.524;2023-07-29T05:54:17;5.30;;;4.28;;
21181;SDS011;10749;46.296;7.524;2023-07-29T05:56:43;5.10;;;4.20;;
21181;SDS011;10749;46.296;7.524;2023-07-29T05:59:08;6.55;;;4.20;;
21181;SDS011;10749;46.296;7.524;2023-07-29T06:01:33;5.38;;;4.18;;
21181;SDS011;10749;46.296;7.524;2023-07-29T06:03:59;6.45;;;4.00;;
21181;SDS011;10749;46.296;7.524;2023-07-29T06:06:25;5.85;;;4.47;;
21181;SDS011;10749;46.296;7.524;2023-07-29T06:08:50;6.50;;;4.30;;
21181;SDS011;10749;46.296;7.524;2023-07-29T06:11:16;6.22;;;4.68;;
21181;SDS011;10749;46.296;7.524;2023-07-29T06:13:41;7.18;;;4.80;;
21181;SDS011;10749;46.296;7.524;2023-07-29T06:16:06;5.82;;;4.40;;
21181;SDS011;10749;46.296;7.524;2023-07-29T06:18:32;7.43;;;4.55;;
21181;SDS011;10749;46.296;7.524;2023-07-29T06:20:57;9.95;;;4.47;;
21181;SDS011;10749;46.296;7.524;2023-07-29T06:23:23;6.07;;;4.22;;
21181;SDS011;10749;46.296;7.524;2023-07-29T06:25:48;8.55;;;4.72;;
21181;SDS011;10749;46.296;7.524;2023-07-29T06:28:13;6.18;;;4.60;;
21181;SDS011;10749;46.296;7.524;2023-07-29T06:30:40;7.20;;;4.90;;
21181;SDS011;10749;46.296;7.524;2023-07-29T06:33:05;7.30;;;4.63;;
21181;SDS011;10749;46.296;7.524;2023-07-29T06:35:31;7.72;;;4.50;;
21181;SDS011;10749;46.296;7.524;2023-07-29T06:37:56;6.47;;;4.65;;
21181;SDS011;10749;46.296;7.524;2023-07-29T06:40:21;5.60;;;4.05;;
21181;SDS011;10749;46.296;7.524;2023-07-29T06:42:47;8.05;;;4.57;;
21181;SDS011;10749;46.296;7.524;2023-07-29T06:45:12;5.50;;;4.53;;
21181;SDS011;10749;46.296;7.524;2023-07-29T06:47:37;5.68;;;4.18;;
21181;SDS011;10749;46.296;7.524;2023-07-29T06:50:03;9.70;;;4.75;;
21181;SDS011;10749;46.296;7.524;2023-07-29T06:52:28;9.02;;;4.25;;
21181;SDS011;10749;46.296;7.524;2023-07-29T06:54:54;7.88;;;4.28;;
21181;SDS011;10749;46.296;7.524;2023-07-29T06:57:19;8.18;;;4.57;;
21181;SDS011;10749;46.296;7.524;2023-07-29T06:59:44;6.15;;;4.40;;
21181;SDS011;10749;46.296;7.524;2023-07-29T07:02:09;7.03;;;4.15;;
21181;SDS011;10749;46.296;7.524;2023-07-29T07:04:35;5.40;;;4.50;;
21181;SDS011;10749;46.296;7.524;2023-07-29T07:07:00;4.75;;;4.18;;
21181;SDS011;10749;46.296;7.524;2023-07-29T07:09:25;6.63;;;4.68;;
21181;SDS011;10749;46.296;7.524;2023-07-29T07:11:51;6.47;;;4.25;;
21181;SDS011;10749;46.296;7.524;2023-07-29T07:14:17;5.07;;;4.07;;
21181;SDS011;10749;46.296;7.524;2023-07-29T07:16:42;7.55;;;4.13;;
21181;SDS011;10749;46.296;7.524;2023-07-29T07:19:09;6.00;;;4.57;;
21181;SDS011;10749;46.296;7.524;2023-07-29T07:21:34;7.05;;;4.43;;
21181;SDS011;10749;46.296;7.524;2023-07-29T07:23:59;7.85;;;4.72;;
21181;SDS011;10749;46.296;7.524;2023-07-29T07:26:25;5.60;;;4.60;;
21181;SDS011;10749;46.296;7.524;2023-07-29T07:28:50;7.63;;;4.88;;
21181;SDS011;10749;46.296;7.524;2023-07-29T07:31:16;5.20;;;4.63;;
21181;SDS011;10749;46.296;7.524;2023-07-29T07:33:41;5.72;;;4.30;;
21181;SDS011;10749;46.296;7.524;2023-07-29T07:36:07;5.22;;;4.28;;
21181;SDS011;10749;46.296;7.524;2023-07-29T07:38:32;7.68;;;4.78;;
21181;SDS011;10749;46.296;7.524;2023-07-29T07:40:58;5.45;;;4.50;;
21181;SDS011;10749;46.296;7.524;2023-07-29T07:43:23;7.50;;;4.75;;
21181;SDS011;10749;46.296;7.524;2023-07-29T07:45:49;6.80;;;4.32;;
21181;SDS011;10749;46.296;7.524;2023-07-29T07:48:14;5.40;;;4.07;;
21181;SDS011;10749;46.296;7.524;2023-07-29T07:50:41;5.22;;;4.40;;
21181;SDS011;10749;46.296;7.524;2023-07-29T07:53:07;6.00;;;4.53;;
21181;SDS011;10749;46.296;7.524;2023-07-29T07:55:32;5.10;;;4.60;;
21181;SDS011;10749;46.296;7.524;2023-07-29T07:57:57;5.50;;;4.50;;
21181;SDS011;10749;46.296;7.524;2023-07-29T08:00:22;6.65;;;4.28;;
21181;SDS011;10749;46.296;7.524;2023-07-29T08:02:48;7.13;;;4.35;;
21181;SDS011;10749;46.296;7.524;2023-07-29T08:05:13;6.18;;;4.68;;
21181;SDS011;10749;46.296;7.524;2023-07-29T08:07:38;5.95;;;4.30;;
21181;SDS011;10749;46.296;7.524;2023-07-29T08:10:04;7.40;;;4.38;;
21181;SDS011;10749;46.296;7.524;2023-07-29T08:12:30;6.13;;;4.50;;
21181;SDS011;10749;46.296;7.524;2023-07-29T08:14:55;6.78;;;4.78;;
21181;SDS011;10749;46.296;7.524;2023-07-29T08:17:20;7.55;;;4.30;;
21181;SDS011;10749;46.296;7.524;2023-07-29T08:19:46;6.03;;;4.57;;
21181;SDS011;10749;46.296;7.524;2023-07-29T08:22:11;6.82;;;4.22;;
21181;SDS011;10749;46.296;7.524;2023-07-29T08:24:36;5.90;;;4.38;;
21181;SDS011;10749;46.296;7.524;2023-07-29T08:27:02;6.13;;;4.25;;
21181;SDS011;10749;46.296;7.524;2023-07-29T08:29:27;8.60;;;4.28;;
21181;SDS011;10749;46.296;7.524;2023-07-29T08:31:52;4.78;;;4.25;;
21181;SDS011;10749;46.296;7.524;2023-07-29T08:34:18;5.50;;;4.32;;
21181;SDS011;10749;46.296;7.524;2023-07-29T08:36:43;5.78;;;4.45;;
21181;SDS011;10749;46.296;7.524;2023-07-29T08:39:08;5.65;;;4.30;;
21181;SDS011;10749;46.296;7.524;2023-07-29T08:44:24;8.10;;;4.60;;
21181;SDS011;10749;46.296;7.524;2023-07-29T08:46:52;5.13;;;4.18;;
21181;SDS011;10749;46.296;7.524;2023-07-29T08:49:19;6.38;;;4.20;;
21181;SDS011;10749;46.296;7.524;2023-07-29T08:51:46;5.72;;;4.70;;
21181;SDS011;10749;46.296;7.524;2023-07-29T08:54:13;6.70;;;4.20;;
21181;SDS011;10749;46.296;7.524;2023-07-29T08:56:40;5.53;;;4.35;;
21181;SDS011;10749;46.296;7.524;2023-07-29T08:59:06;5.85;;;4.00;;
21181;SDS011;10749;46.296;7.524;2023-07-29T09:01:32;6.10;;;4.15;;
21181;SDS011;10749;46.296;7.524;2023-07-29T09:03:58;4.88;;;4.00;;
21181;SDS011;10749;46.296;7.524;2023-07-29T09:06:24;5.13;;;4.53;;
21181;SDS011;10749;46.296;7.524;2023-07-29T09:08:53;7.03;;;4.63;;
21181;SDS011;10749;46.296;7.524;2023-07-29T09:11:21;9.05;;;4.55;;
21181;SDS011;10749;46.296;7.524;2023-07-29T09:13:46;6.10;;;4.32;;
21181;SDS011;10749;46.296;7.524;2023-07-29T09:16:12;6.10;;;4.68;;
21181;SDS011;10749;46.296;7.524;2023-07-29T09:18:38;6.85;;;4.45;;
21181;SDS011;10749;46.296;7.524;2023-07-29T09:21:04;5.07;;;4.57;;
21181;SDS011;10749;46.296;7.524;2023-07-29T09:23:38;6.47;;;4.15;;
21181;SDS011;10749;46.296;7.524;2023-07-29T09:26:05;7.13;;;4.20;;
21181;SDS011;10749;46.296;7.524;2023-07-29T09:28:34;4.97;;;4.47;;
21181;SDS011;10749;46.296;7.524;2023-07-29T09:31:00;5.40;;;4.05;;
21181;SDS011;10749;46.296;7.524;2023-07-29T09:33:26;5.20;;;4.25;;
21181;SDS011;10749;46.296;7.524;2023-07-29T09:35:52;5.50;;;4.15;;
21181;SDS011;10749;46.296;7.524;2023-07-29T09:38:17;5.93;;;4.35;;
21181;SDS011;10749;46.296;7.524;2023-07-29T09:40:42;6.35;;;4.78;;
21181;SDS011;10749;46.296;7.524;2023-07-29T09:43:10;6.85;;;5.15;;
21181;SDS011;10749;46.296;7.524;2023-07-29T09:45:36;5.88;;;5.20;;
21181;SDS011;10749;46.296;7.524;2023-07-29T09:48:03;6.75;;;5.18;;
21181;SDS011;10749;46.296;7.524;2023-07-29T09:50:30;9.52;;;5.47;;
21181;SDS011;10749;46.296;7.524;2023-07-29T09:52:56;8.45;;;5.70;;
21181;SDS011;10749;46.296;7.524;2023-07-29T09:55:25;9.52;;;5.53;;
21181;SDS011;10749;46.296;7.524;2023-07-29T09:57:56;7.80;;;5.47;;
21181;SDS011;10749;46.296;7.524;2023-07-29T10:00:30;5.80;;;5.13;;
21181;SDS011;10749;46.296;7.524;2023-07-29T10:02:57;6.30;;;5.05;;
21181;SDS011;10749;46.296;7.524;2023-07-29T10:05:23;7.38;;;4.95;;
21181;SDS011;10749;46.296;7.524;2023-07-29T10:07:50;6.68;;;5.28;;
21181;SDS011;10749;46.296;7.524;2023-07-29T10:10:16;7.82;;;5.25;;
21181;SDS011;10749;46.296;7.524;2023-07-29T10:12:42;7.72;;;5.22;;
21181;SDS011;10749;46.296;7.524;2023-07-29T10:15:08;6.38;;;5.20;;
21181;SDS011;10749;46.296;7.524;2023-07-29T10:17:36;6.68;;;5.00;;
21181;SDS011;10749;46.296;7.524;2023-07-29T10:20:06;6.82;;;4.85;;
21181;SDS011;10749;46.296;7.524;2023-07-29T10:22:36;7.28;;;5.40;;
21181;SDS011;10749;46.296;7.524;2023-07-29T10:27:56;5.93;;;5.07;;
21181;SDS011;10749;46.296;7.524;2023-07-29T10:30:25;6.25;;;5.18;;
21181;SDS011;10749;46.296;7.524;2023-07-29T10:32:53;10.57;;;5.32;;
21181;SDS011;10749;46.296;7.524;2023-07-29T10:35:23;9.45;;;5.50;;
21181;SDS011;10749;46.296;7.524;2023-07-29T10:37:48;8.10;;;5.32;;
21181;SDS011;10749;46.296;7.524;2023-07-29T10:40:16;8.63;;;5.22;;
21181;SDS011;10749;46.296;7.524;2023-07-29T10:42:58;7.78;;;5.60;;
21181;SDS011;10749;46.296;7.524;2023-07-29T10:45:26;6.90;;;5.57;;
21181;SDS011;10749;46.296;7.524;2023-07-29T10:48:04;7.68;;;5.32;;
21181;SDS011;10749;46.296;7.524;2023-07-29T10:50:31;7.63;;;5.60;;
21181;SDS011;10749;46.296;7.524;2023-07-29T10:52:56;8.25;;;5.88;;
21181;SDS011;10749;46.296;7.524;2023-07-29T10:55:23;9.27;;;5.82;;
21181;SDS011;10749;46.296;7.524;2023-07-29T10:57:49;8.73;;;6.00;;
21181;SDS011;10749;46.296;7.524;2023-07-29T11:00:15;8.35;;;5.15;;
21181;SDS011;10749;46.296;7.524;2023-07-29T11:02:40;8.32;;;5.28;;
21181;SDS011;10749;46.296;7.524;2023-07-29T11:05:07;6.82;;;5.25;;
21181;SDS011;10749;46.296;7.524;2023-07-29T11:07:44;6.22;;;4.93;;
21181;SDS011;10749;46.296;7.524;2023-07-29T11:10:11;6.10;;;5.43;;
21181;SDS011;10749;46.296;7.524;2023-07-29T11:12:47;6.32;;;4.65;;
21181;SDS011;10749;46.296;7.524;2023-07-29T11:15:16;6.30;;;5.10;;
21181;SDS011;10749;46.296;7.524;2023-07-29T11:17:47;7.18;;;5.25;;
21181;SDS011;10749;46.296;7.524;2023-07-29T11:20:15;10.52;;;5.40;;
21181;SDS011;10749;46.296;7.524;2023-07-29T11:22:41;7.10;;;5.20;;
21181;SDS011;10749;46.296;7.524;2023-07-29T11:25:07;7.10;;;5.30;;
21181;SDS011;10749;46.296;7.524;2023-07-29T11:27:35;7.57;;;5.43;;
21181;SDS011;10749;46.296;7.524;2023-07-29T11:30:02;8.75;;;5.40;;
21181;SDS011;10749;46.296;7.524;2023-07-29T11:32:30;6.63;;;5.88;;
21181;SDS011;10749;46.296;7.524;2023-07-29T11:34:56;6.57;;;5.75;;
21181;SDS011;10749;46.296;7.524;2023-07-29T11:37:21;7.57;;;5.47;;
21181;SDS011;10749;46.296;7.524;2023-07-29T11:39:46;6.45;;;5.47;;
21181;SDS011;10749;46.296;7.524;2023-07-29T11:42:15;9.15;;;5.80;;
21181;SDS011;10749;46.296;7.524;2023-07-29T11:44:41;11.75;;;5.82;;
21181;SDS011;10749;46.296;7.524;2023-07-29T11:47:09;7.72;;;5.70;;
21181;SDS011;10749;46.296;7.524;2023-07-29T11:49:36;7.25;;;5.45;;
21181;SDS011;10749;46.296;7.524;2023-07-29T11:52:05;7.25;;;5.22;;
21181;SDS011;10749;46.296;7.524;2023-07-29T11:54:31;7.75;;;5.50;;
21181;SDS011;10749;46.296;7.524;2023-07-29T11:56:57;8.23;;;5.63;;
21181;SDS011;10749;46.296;7.524;2023-07-29T11:59:23;7.57;;;5.65;;
21181;SDS011;10749;46.296;7.524;2023-07-29T12:01:48;6.45;;;5.45;;
21181;SDS011;10749;46.296;7.524;2023-07-29T12:04:14;9.20;;;5.80;;
21181;SDS011;10749;46.296;7.524;2023-07-29T12:06:40;7.82;;;5.50;;
21181;SDS011;10749;46.296;7.524;2023-07-29T12:09:06;8.82;;;5.90;;
21181;SDS011;10749;46.296;7.524;2023-07-29T12:11:32;6.72;;;5.38;;
21181;SDS011;10749;46.296;7.524;2023-07-29T12:13:59;6.75;;;5.55;;
21181;SDS011;10749;46.296;7.524;2023-07-29T12:16:25;8.10;;;5.60;;
21181;SDS011;10749;46.296;7.524;2023-07-29T12:18:50;6.40;;;5.50;;
21181;SDS011;10749;46.296;7.524;2023-07-29T12:21:15;8.73;;;6.22;;
21181;SDS011;10749;46.296;7.524;2023-07-29T12:23:43;13.82;;;5.85;;
21181;SDS011;10749;46.296;7.524;2023-07-29T12:26:08;7.78;;;5.43;;
21181;SDS011;10749;46.296;7.524;2023-07-29T12:28:33;7.28;;;6.15;;
21181;SDS011;10749;46.296;7.524;2023-07-29T12:30:59;8.23;;;6.05;;
21181;SDS011;10749;46.296;7.524;2023-07-29T12:33:31;8.23;;;6.05;;
21181;SDS011;10749;46.296;7.524;2023-07-29T12:35:57;6.90;;;5.60;;
21181;SDS011;10749;46.296;7.524;2023-07-29T12:38:25;7.43;;;5.97;;
21181;SDS011;10749;46.296;7.524;2023-07-29T12:40:51;8.68;;;6.40;;
21181;SDS011;10749;46.296;7.524;2023-07-29T12:43:16;7.68;;;6.47;;
21181;SDS011;10749;46.296;7.524;2023-07-29T12:45:41;8.27;;;6.88;;
21181;SDS011;10749;46.296;7.524;2023-07-29T12:48:10;9.70;;;5.72;;
21181;SDS011;10749;46.296;7.524;2023-07-29T12:50:36;9.68;;;6.15;;
21181;SDS011;10749;46.296;7.524;2023-07-29T12:53:02;8.40;;;6.32;;
21181;SDS011;10749;46.296;7.524;2023-07-29T12:55:27;12.07;;;6.20;;
21181;SDS011;10749;46.296;7.524;2023-07-29T12:57:52;8.88;;;6.22;;
21181;SDS011;10749;46.296;7.524;2023-07-29T13:00:18;8.82;;;6.10;;
21181;SDS011;10749;46.296;7.524;2023-07-29T13:02:43;9.05;;;5.72;;
21181;SDS011;10749;46.296;7.524;2023-07-29T13:05:09;7.55;;;5.55;;
21181;SDS011;10749;46.296;7.524;2023-07-29T13:07:39;7.43;;;5.78;;
21181;SDS011;10749;46.296;7.524;2023-07-29T13:10:04;7.28;;;5.35;;
21181;SDS011;10749;46.296;7.524;2023-07-29T13:12:30;7.25;;;5.80;;
21181;SDS011;10749;46.296;7.524;2023-07-29T13:14:55;8.80;;;5.80;;
21181;SDS011;10749;46.296;7.524;2023-07-29T13:17:21;7.38;;;5.40;;
21181;SDS011;10749;46.296;7.524;2023-07-29T13:19:47;7.65;;;5.68;;
21181;SDS011;10749;46.296;7.524;2023-07-29T13:22:12;8.02;;;5.88;;
21181;SDS011;10749;46.296;7.524;2023-07-29T13:24:38;7.72;;;5.40;;
21181;SDS011;10749;46.296;7.524;2023-07-29T13:27:03;9.48;;;6.15;;
21181;SDS011;10749;46.296;7.524;2023-07-29T13:29:29;7.68;;;6.30;;
21181;SDS011;10749;46.296;7.524;2023-07-29T13:31:54;10.95;;;6.40;;
21181;SDS011;10749;46.296;7.524;2023-07-29T13:34:19;8.88;;;6.60;;
21181;SDS011;10749;46.296;7.524;2023-07-29T13:36:45;10.68;;;6.78;;
21181;SDS011;10749;46.296;7.524;2023-07-29T13:39:10;8.30;;;6.85;;
21181;SDS011;10749;46.296;7.524;2023-07-29T13:41:35;8.30;;;6.95;;
21181;SDS011;10749;46.296;7.524;2023-07-29T13:44:00;8.23;;;6.95;;
21181;SDS011;10749;46.296;7.524;2023-07-29T13:46:26;8.35;;;6.30;;
21181;SDS011;10749;46.296;7.524;2023-07-29T13:48:51;10.88;;;6.78;;
21181;SDS011;10749;46.296;7.524;2023-07-29T13:51:16;7.97;;;6.13;;
21181;SDS011;10749;46.296;7.524;2023-07-29T13:53:42;8.13;;;6.32;;
21181;SDS011;10749;46.296;7.524;2023-07-29T13:56:07;7.65;;;6.15;;
21181;SDS011;10749;46.296;7.524;2023-07-29T13:58:32;7.53;;;6.13;;
21181;SDS011;10749;46.296;7.524;2023-07-29T14:00:58;7.65;;;6.15;;
21181;SDS011;10749;46.296;7.524;2023-07-29T14:03:23;9.77;;;6.68;;
21181;SDS011;10749;46.296;7.524;2023-07-29T14:05:48;7.13;;;6.30;;
21181;SDS011;10749;46.296;7.524;2023-07-29T14:08:13;8.18;;;6.80;;
21181;SDS011;10749;46.296;7.524;2023-07-29T14:10:39;9.25;;;6.80;;
21181;SDS011;10749;46.296;7.524;2023-07-29T14:13:04;7.82;;;6.97;;
21181;SDS011;10749;46.296;7.524;2023-07-29T14:15:29;8.70;;;7.05;;
21181;SDS011;10749;46.296;7.524;2023-07-29T14:17:57;10.30;;;7.20;;
21181;SDS011;10749;46.296;7.524;2023-07-29T14:20:22;9.02;;;7.05;;
21181;SDS011;10749;46.296;7.524;2023-07-29T14:22:48;9.93;;;6.60;;
21181;SDS011;10749;46.296;7.524;2023-07-29T14:25:13;8.23;;;6.57;;
21181;SDS011;10749;46.296;7.524;2023-07-29T14:27:39;7.53;;;6.15;;
21181;SDS011;10749;46.296;7.524;2023-07-29T14:30:04;9.25;;;6.78;;
21181;SDS011;10749;46.296;7.524;2023-07-29T14:32:30;7.88;;;6.10;;
21181;SDS011;10749;46.296;7.524;2023-07-29T14:34:55;9.35;;;6.10;;
21181;SDS011;10749;46.296;7.524;2023-07-29T14:37:21;8.07;;;5.93;;
21181;SDS011;10749;46.296;7.524;2023-07-29T14:39:46;8.30;;;6.32;;
21181;SDS011;10749;46.296;7.524;2023-07-29T14:42:12;9.38;;;6.65;;
21181;SDS011;10749;46.296;7.524;2023-07-29T14:44:39;8.50;;;6.88;;
21181;SDS011;10749;46.296;7.524;2023-07-29T14:47:05;8.35;;;7.18;;
21181;SDS011;10749;46.296;7.524;2023-07-29T14:49:31;10.05;;;6.85;;
21181;SDS011;10749;46.296;7.524;2023-07-29T14:51:56;8.90;;;7.80;;
21181;SDS011;10749;46.296;7.524;2023-07-29T14:54:22;9.43;;;7.20;;